Time;durP1;ratioP1;P1;durP2;ratioP2;P2;SDS_P1;SDS_P2;PMS_P1;PMS_P2;Temp;Humidity;BMP_temperature;BMP_pressure;BME280_temperature;BME280_humidity;BME280_pressure;Samples;Min_cycle;Max_cycle;Signal;HPM_P1;HPM_P2
2021/07/25 00:00:37;;;;;;;6.50;4.70;;;15.90;99.90;;;;;;4997963;28;20175;-82
2021/07/25 00:03:03;;;;;;;6.23;4.20;;;15.80;99.90;;;;;;4999210;28;20239;-82
2021/07/25 00:05:29;;;;;;;9.00;5.03;;;15.90;99.90;;;;;;4998477;28;20184;-82
2021/07/25 00:07:55;;;;;;;6.50;4.23;;;15.80;99.90;;;;;;4999918;28;20226;-81
2021/07/25 00:10:20;;;;;;;10.03;4.13;;;15.80;99.90;;;;;;4998202;28;20203;-82
2021/07/25 00:12:46;;;;;;;6.33;4.40;;;15.80;99.90;;;;;;4998402;28;20244;-82
2021/07/25 00:15:12;;;;;;;6.83;4.10;;;15.70;99.90;;;;;;4999720;28;20191;-82
2021/07/25 00:17:38;;;;;;;8.50;5.30;;;15.70;99.90;;;;;;4999904;28;20206;-82
2021/07/25 00:20:04;;;;;;;8.47;4.13;;;15.70;99.90;;;;;;4996170;28;20574;-82
2021/07/25 00:22:30;;;;;;;9.37;4.13;;;15.80;99.90;;;;;;4996424;28;20179;-82
2021/07/25 00:25:09;;;;;;;7.67;4.17;;;15.80;99.90;;;;;;4997526;28;20575;-82
2021/07/25 00:27:40;;;;;;;6.27;4.20;;;15.80;99.90;;;;;;4997728;28;20183;-82
2021/07/25 00:30:08;;;;;;;6.87;4.03;;;15.70;99.90;;;;;;4998441;28;20592;-82
2021/07/25 00:32:34;;;;;;;8.37;4.00;;;15.80;99.90;;;;;;4997066;28;20186;-81
2021/07/25 00:35:00;;;;;;;8.53;4.43;;;15.70;99.90;;;;;;4999199;28;20259;-81
2021/07/25 00:37:26;;;;;;;6.77;4.43;;;15.70;99.90;;;;;;5000570;28;20195;-80
2021/07/25 00:39:51;;;;;;;4.93;4.00;;;15.70;99.90;;;;;;4999258;28;20176;-82
2021/07/25 00:42:17;;;;;;;7.63;3.70;;;15.70;99.90;;;;;;4997110;28;20627;-82
2021/07/25 00:44:43;;;;;;;5.40;3.93;;;15.70;99.90;;;;;;5000491;28;20219;-82
2021/07/25 00:47:08;;;;;;;5.93;3.90;;;15.70;99.90;;;;;;5002699;28;20179;-81
2021/07/25 00:49:36;;;;;;;6.13;4.13;;;15.80;99.90;;;;;;5005056;28;20558;-81
2021/07/25 00:52:04;;;;;;;7.07;4.17;;;15.80;99.90;;;;;;5005750;28;20236;-80
2021/07/25 00:54:30;;;;;;;11.00;4.23;;;15.80;99.90;;;;;;4999916;28;20188;-81
2021/07/25 00:56:55;;;;;;;9.03;4.27;;;15.80;99.90;;;;;;5006191;28;20182;-81
2021/07/25 00:59:21;;;;;;;6.83;4.30;;;15.90;99.90;;;;;;5002985;28;20186;-81
2021/07/25 01:01:49;;;;;;;13.00;4.90;;;15.90;99.90;;;;;;5000676;28;20542;-81
2021/07/25 01:04:38;;;;;;;7.57;4.77;;;15.90;99.90;;;;;;4999375;28;20226;-81
2021/07/25 01:07:35;;;;;;;7.50;4.47;;;15.90;99.90;;;;;;5000911;28;20171;-81
2021/07/25 01:10:05;;;;;;;6.23;4.73;;;16.00;99.90;;;;;;5000994;28;20570;-81
2021/07/25 01:12:49;;;;;;;6.57;4.43;;;16.00;99.90;;;;;;5000297;28;20211;-81
2021/07/25 01:15:19;;;;;;;6.57;4.70;;;16.00;99.90;;;;;;4998674;28;20286;-81
2021/07/25 01:17:45;;;;;;;11.57;5.23;;;16.00;99.90;;;;;;5001276;28;20199;-81
2021/07/25 01:20:12;;;;;;;8.17;4.67;;;15.90;99.90;;;;;;5001775;28;20180;-82
2021/07/25 01:22:43;;;;;;;7.57;4.40;;;15.90;99.90;;;;;;5001056;28;20168;-81
2021/07/25 01:25:11;;;;;;;5.83;4.33;;;15.90;99.90;;;;;;5001681;28;20195;-81
2021/07/25 01:27:50;;;;;;;9.47;4.60;;;15.90;99.90;;;;;;4999931;28;20229;-81
2021/07/25 01:30:20;;;;;;;8.17;4.50;;;15.90;99.90;;;;;;4999934;28;20191;-81
2021/07/25 01:32:49;;;;;;;5.53;4.17;;;15.90;99.90;;;;;;4999361;28;20182;-81
2021/07/25 01:35:15;;;;;;;6.97;4.57;;;16.00;99.90;;;;;;4999774;28;20195;-81
2021/07/25 01:37:41;;;;;;;7.30;4.80;;;16.00;99.90;;;;;;5001144;28;20565;-81
2021/07/25 01:40:25;;;;;;;7.87;4.37;;;16.00;99.90;;;;;;5001958;28;20212;-81
2021/07/25 01:42:53;;;;;;;7.37;5.07;;;16.00;99.90;;;;;;4999487;28;20711;-81
2021/07/25 01:45:19;;;;;;;7.77;4.67;;;16.00;99.90;;;;;;5000939;28;20263;-81
2021/07/25 01:47:45;;;;;;;6.53;5.00;;;16.00;99.90;;;;;;5016762;28;20180;-81
2021/07/25 01:50:12;;;;;;;6.70;4.07;;;16.00;99.90;;;;;;5000485;28;20202;-81
2021/07/25 01:52:38;;;;;;;7.90;4.27;;;15.90;99.90;;;;;;5001548;28;20199;-81
2021/07/25 01:55:04;;;;;;;6.97;3.93;;;16.00;99.90;;;;;;5000242;28;20196;-81
2021/07/25 01:57:30;;;;;;;9.37;5.00;;;16.00;99.90;;;;;;5009270;28;20172;-80
2021/07/25 01:59:56;;;;;;;5.93;4.03;;;15.90;99.90;;;;;;5016475;28;20275;-81
2021/07/25 02:02:22;;;;;;;5.97;4.20;;;;;;;;;;5008733;28;20234;-81
2021/07/25 02:04:47;;;;;;;5.27;4.07;;;15.90;99.90;;;;;;5001411;28;20258;-81
2021/07/25 02:07:13;;;;;;;6.53;4.17;;;15.90;99.90;;;;;;4999512;28;20187;-82
2021/07/25 02:09:39;;;;;;;7.20;4.57;;;15.90;99.90;;;;;;4999747;28;20226;-82
2021/07/25 02:12:06;;;;;;;8.13;4.17;;;16.00;99.90;;;;;;4999757;28;20582;-81
2021/07/25 02:14:33;;;;;;;6.20;4.27;;;16.00;99.90;;;;;;5000154;28;20204;-81
2021/07/25 02:17:00;;;;;;;5.77;4.07;;;15.90;99.90;;;;;;5000760;28;20548;-82
2021/07/25 02:19:26;;;;;;;6.03;3.77;;;15.90;99.90;;;;;;5002693;28;20180;-81
2021/07/25 02:21:53;;;;;;;6.53;4.50;;;15.90;99.90;;;;;;5001614;28;20637;-81
2021/07/25 02:24:21;;;;;;;6.13;4.00;;;16.00;99.90;;;;;;5001179;28;20204;-82
2021/07/25 02:26:50;;;;;;;10.13;4.37;;;16.00;99.90;;;;;;5002363;28;20179;-81
2021/07/25 02:29:16;;;;;;;6.17;4.43;;;15.90;99.90;;;;;;5000130;28;20581;-81
2021/07/25 02:31:43;;;;;;;6.00;4.00;;;16.00;99.90;;;;;;5001965;28;20187;-81
2021/07/25 02:34:09;;;;;;;8.47;5.00;;;16.00;99.90;;;;;;5002928;28;20212;-81
2021/07/25 02:36:34;;;;;;;8.33;4.43;;;16.00;99.90;;;;;;5002468;28;20180;-81
2021/07/25 02:39:00;;;;;;;5.60;4.50;;;;;;;;;;5001853;28;20201;-81
2021/07/25 02:41:26;;;;;;;8.20;4.53;;;16.00;99.90;;;;;;5000492;28;20238;-81
2021/07/25 02:43:52;;;;;;;9.43;5.00;;;16.00;99.90;;;;;;4999274;28;20199;-81
2021/07/25 02:46:18;;;;;;;7.33;4.73;;;16.00;99.90;;;;;;4998795;28;20180;-81
2021/07/25 02:48:43;;;;;;;8.57;5.00;;;16.00;99.90;;;;;;5015050;28;20294;-80
2021/07/25 02:51:09;;;;;;;7.83;4.67;;;16.00;99.90;;;;;;5022582;28;20187;-81
2021/07/25 02:53:35;;;;;;;5.73;4.53;;;16.00;99.90;;;;;;5002619;28;20199;-81
2021/07/25 02:56:01;;;;;;;11.30;5.10;;;;;;;;;;5010318;28;20538;-81
2021/07/25 02:58:26;;;;;;;6.63;5.03;;;15.90;99.90;;;;;;5009526;28;20175;-81
2021/07/25 03:00:53;;;;;;;6.67;5.10;;;;;;;;;;4999190;28;20221;-80
2021/07/25 03:03:18;;;;;;;10.10;5.40;;;16.00;99.90;;;;;;4996353;28;20558;-80
2021/07/25 03:05:44;;;;;;;7.70;5.37;;;16.00;99.90;;;;;;4996512;28;20176;-81
2021/07/25 03:08:10;;;;;;;8.83;5.87;;;16.10;99.90;;;;;;4996658;28;20211;-81
2021/07/25 03:10:35;;;;;;;8.07;5.87;;;16.10;99.90;;;;;;4996637;28;20203;-81
2021/07/25 03:13:01;;;;;;;12.17;5.97;;;16.10;99.90;;;;;;4997736;28;20537;-81
2021/07/25 03:15:27;;;;;;;6.83;4.50;;;16.10;99.90;;;;;;4997727;28;20178;-81
2021/07/25 03:17:52;;;;;;;2.93;2.63;;;16.10;99.90;;;;;;4997920;28;20175;-81
2021/07/25 03:20:18;;;;;;;3.80;2.20;;;16.00;99.90;;;;;;4997942;28;20243;-81
2021/07/25 03:22:44;;;;;;;2.97;2.00;;;16.00;99.90;;;;;;4996792;28;20548;-82
2021/07/25 03:25:11;;;;;;;11.20;2.87;;;16.00;99.90;;;;;;4997785;28;20718;-82
2021/07/25 03:27:37;;;;;;;5.47;1.50;;;15.90;99.90;;;;;;4998723;28;20610;-82
2021/07/25 03:30:04;;;;;;;2.70;1.30;;;15.70;99.90;;;;;;4999015;28;20223;-81
2021/07/25 03:32:30;;;;;;;4.60;2.00;;;15.60;99.90;;;;;;4998207;28;20180;-82
2021/07/25 03:34:56;;;;;;;2.23;1.40;;;15.40;99.90;;;;;;4997304;28;20681;-82
2021/07/25 03:37:22;;;;;;;2.67;1.50;;;;;;;;;;4996312;28;20175;-82
2021/07/25 03:39:51;;;;;;;2.77;1.67;;;15.30;99.90;;;;;;4996626;28;20199;-82
2021/07/25 03:42:17;;;;;;;2.50;1.90;;;15.40;99.90;;;;;;4997175;28;20214;-81
2021/07/25 03:44:43;;;;;;;2.77;1.70;;;15.40;99.90;;;;;;4996748;28;20254;-81
2021/07/25 03:47:10;;;;;;;2.80;1.97;;;;;;;;;;4998175;28;20180;-81
2021/07/25 03:49:38;;;;;;;3.10;2.00;;;15.30;99.90;;;;;;4996646;28;20279;-81
2021/07/25 03:52:04;;;;;;;3.77;1.70;;;15.30;99.90;;;;;;4996509;28;20594;-81
2021/07/25 03:54:30;;;;;;;5.07;1.63;;;15.30;99.90;;;;;;4996956;28;20199;-81
2021/07/25 03:56:56;;;;;;;4.17;1.93;;;;;;;;;;4997720;28;20180;-81
2021/07/25 03:59:22;;;;;;;1.67;1.47;;;15.20;99.90;;;;;;4998373;28;20183;-81
2021/07/25 04:01:48;;;;;;;1.90;1.43;;;15.10;99.90;;;;;;4998322;28;20310;-81
2021/07/25 04:04:14;;;;;;;2.43;1.40;;;;;;;;;;4997521;28;20211;-81
2021/07/25 04:06:39;;;;;;;1.77;1.20;;;14.90;99.90;;;;;;4997312;28;20653;-81
2021/07/25 04:09:05;;;;;;;1.63;1.03;;;14.90;99.90;;;;;;4998726;28;20203;-81
2021/07/25 04:11:31;;;;;;;1.77;1.00;;;;;;;;;;4998030;28;20183;-81
2021/07/25 04:13:57;;;;;;;1.50;1.10;;;14.90;99.90;;;;;;4999386;28;20207;-81
2021/07/25 04:16:22;;;;;;;3.10;1.27;;;14.90;99.90;;;;;;4999764;28;20190;-81
2021/07/25 04:18:48;;;;;;;1.93;1.30;;;14.80;99.90;;;;;;5004831;28;20180;-81
2021/07/25 04:21:13;;;;;;;4.97;1.87;;;14.90;99.90;;;;;;5003569;28;20306;-81
2021/07/25 04:23:40;;;;;;;6.43;1.83;;;15.00;99.90;;;;;;5003616;28;20247;-81
2021/07/25 04:26:06;;;;;;;2.40;1.60;;;15.00;99.90;;;;;;5004520;28;20175;-81
2021/07/25 04:28:32;;;;;;;3.33;2.00;;;15.10;99.90;;;;;;5021244;28;20251;-81
2021/07/25 04:30:58;;;;;;;2.97;2.50;;;15.10;99.90;;;;;;5004766;28;20294;-81
2021/07/25 04:33:24;;;;;;;3.77;3.00;;;15.10;99.90;;;;;;5004807;28;20263;-81
2021/07/25 04:35:50;;;;;;;3.50;2.73;;;15.10;99.90;;;;;;5012915;28;20175;-81
2021/07/25 04:38:16;;;;;;;4.83;2.83;;;15.10;99.90;;;;;;5002097;28;20182;-81
2021/07/25 04:40:54;;;;;;;4.60;2.93;;;15.20;99.90;;;;;;4999693;28;20661;-81
2021/07/25 04:43:22;;;;;;;5.30;3.60;;;15.30;99.90;;;;;;5001007;28;20221;-81
2021/07/25 04:46:04;;;;;;;4.27;3.50;;;15.30;99.90;;;;;;4999454;28;20250;-81
2021/07/25 04:49:02;;;;;;;4.70;4.00;;;15.30;99.90;;;;;;4999831;28;20183;-81
2021/07/25 04:51:30;;;;;;;5.30;3.83;;;15.30;99.90;;;;;;5015462;28;20179;-81
2021/07/25 04:54:04;;;;;;;5.90;4.73;;;15.40;99.90;;;;;;4999626;28;20295;-82
2021/07/25 04:56:32;;;;;;;7.00;5.00;;;15.40;99.90;;;;;;4999861;28;20164;-81
2021/07/25 04:59:04;;;;;;;6.53;5.23;;;15.50;99.90;;;;;;5001042;28;20172;-81
2021/07/25 05:01:34;;;;;;;7.83;5.40;;;15.50;99.90;;;;;;5000069;28;20176;-81
2021/07/25 05:04:02;;;;;;;7.23;5.43;;;15.60;99.90;;;;;;4999067;28;20685;-81
2021/07/25 05:06:31;;;;;;;11.77;5.87;;;15.60;99.90;;;;;;4999481;28;20186;-81
2021/07/25 05:08:57;;;;;;;11.47;6.63;;;15.60;99.90;;;;;;5001248;28;20196;-81
2021/07/25 05:11:31;;;;;;;7.97;5.53;;;15.70;99.90;;;;;;5000953;28;20655;-81
2021/07/25 05:13:59;;;;;;;7.37;6.10;;;15.70;99.90;;;;;;4999905;28;20218;-83
2021/07/25 05:16:45;;;;;;;6.93;6.00;;;15.80;99.90;;;;;;4998925;28;20179;-81
2021/07/25 05:19:34;;;;;;;10.90;6.50;;;15.80;99.90;;;;;;4998971;28;20182;-81
2021/07/25 05:22:25;;;;;;;8.87;6.30;;;15.80;99.90;;;;;;4999981;28;20195;-81
2021/07/25 05:24:53;;;;;;;8.40;6.47;;;15.90;99.90;;;;;;4997894;28;20222;-81
2021/07/25 05:27:21;;;;;;;7.37;5.90;;;15.90;99.90;;;;;;5001216;28;20191;-83
2021/07/25 05:29:49;;;;;;;9.70;6.77;;;16.00;99.90;;;;;;5000698;28;20199;-81
2021/07/25 05:32:15;;;;;;;8.20;6.60;;;16.10;99.90;;;;;;5000970;28;20190;-80
2021/07/25 05:34:41;;;;;;;10.00;6.87;;;16.10;99.90;;;;;;4999139;28;20742;-81
2021/07/25 05:37:07;;;;;;;9.37;7.00;;;16.20;99.90;;;;;;4999887;28;20267;-81
2021/07/25 05:39:32;;;;;;;8.93;7.00;;;16.20;99.90;;;;;;5000003;28;20184;-81
2021/07/25 05:41:58;;;;;;;8.87;7.33;;;16.30;99.90;;;;;;4999785;28;20187;-81
2021/07/25 05:44:24;;;;;;;8.43;6.63;;;16.40;99.90;;;;;;5000844;28;20219;-82
2021/07/25 05:46:49;;;;;;;7.67;6.87;;;16.40;99.90;;;;;;5000052;28;20210;-81
2021/07/25 05:49:15;;;;;;;10.77;7.17;;;;;;;;;;4999518;28;20547;-81
2021/07/25 05:51:41;;;;;;;10.70;6.80;;;16.50;99.90;;;;;;4998194;28;20243;-81
2021/07/25 05:54:07;;;;;;;9.47;7.17;;;16.60;99.90;;;;;;4999991;28;20298;-81
2021/07/25 05:56:33;;;;;;;10.17;6.80;;;;;;;;;;5003215;28;20176;-81
2021/07/25 05:58:58;;;;;;;8.70;6.70;;;16.70;99.90;;;;;;5004257;28;20230;-80
2021/07/25 06:01:24;;;;;;;11.63;7.07;;;;;;;;;;5000360;28;20183;-81
2021/07/25 06:03:50;;;;;;;9.17;7.17;;;16.90;99.90;;;;;;4999753;28;20208;-81
2021/07/25 06:06:16;;;;;;;12.70;6.97;;;17.00;99.90;;;;;;5000943;28;20560;-82
2021/07/25 06:08:42;;;;;;;9.00;7.07;;;;;;;;;;5007307;28;20182;-82
2021/07/25 06:11:08;;;;;;;8.10;6.33;;;17.20;99.90;;;;;;5012240;28;20176;-81
2021/07/25 06:13:33;;;;;;;8.90;6.03;;;17.20;99.90;;;;;;5007274;28;20218;-81
2021/07/25 06:15:59;;;;;;;12.97;6.33;;;17.30;99.90;;;;;;5000342;28;20180;-81
2021/07/25 06:18:25;;;;;;;7.23;6.00;;;17.30;99.90;;;;;;4998530;28;20548;-81
2021/07/25 06:20:50;;;;;;;10.37;7.03;;;17.30;99.90;;;;;;4998255;28;20230;-81
2021/07/25 06:23:16;;;;;;;8.33;5.97;;;;;;;;;;4999153;28;20298;-81
2021/07/25 06:25:42;;;;;;;7.83;5.40;;;;;;;;;;5000120;28;20225;-81
2021/07/25 06:28:09;;;;;;;7.53;5.43;;;17.20;99.90;;;;;;5000262;28;20556;-81
2021/07/25 06:30:36;;;;;;;9.60;5.10;;;17.30;99.90;;;;;;5001344;28;20196;-81
2021/07/25 06:33:07;;;;;;;9.67;5.97;;;17.10;99.90;;;;;;5000982;28;20175;-80
2021/07/25 06:35:43;;;;;;;9.30;5.93;;;17.20;99.90;;;;;;4998934;28;20164;-80
2021/07/25 06:38:14;;;;;;;7.43;6.10;;;17.10;99.90;;;;;;4999414;28;20167;-81
2021/07/25 06:40:44;;;;;;;9.13;5.97;;;;;;;;;;4997774;28;20226;-81
2021/07/25 06:43:10;;;;;;;7.17;5.70;;;;;;;;;;4997239;28;20207;-81
2021/07/25 06:45:36;;;;;;;7.97;5.73;;;16.90;99.90;;;;;;4998005;28;20191;-81
2021/07/25 06:48:02;;;;;;;10.80;6.90;;;17.00;99.90;;;;;;4997860;28;20184;-81
2021/07/25 06:50:29;;;;;;;8.60;6.47;;;;;;;;;;4998265;28;20203;-81
2021/07/25 06:52:56;;;;;;;8.57;6.60;;;;;;;;;;5006485;28;20245;-81
2021/07/25 06:55:23;;;;;;;9.90;6.73;;;;;;;;;;4997918;28;20180;-81
2021/07/25 06:57:49;;;;;;;8.80;6.90;;;;;;;;;;4998335;28;20712;-81
2021/07/25 07:00:15;;;;;;;8.23;6.23;;;;;;;;;;4999136;28;20187;-82
2021/07/25 07:02:48;;;;;;;9.20;6.67;;;16.70;99.90;;;;;;5000703;28;20190;-81
2021/07/25 07:05:23;;;;;;;8.67;6.60;;;16.70;99.90;;;;;;5000569;28;20258;-81
2021/07/25 07:07:51;;;;;;;8.13;6.23;;;16.70;99.90;;;;;;5001458;28;20163;-81
2021/07/25 07:10:19;;;;;;;12.37;6.80;;;16.70;99.90;;;;;;5011101;28;20192;-81
2021/07/25 07:12:45;;;;;;;11.03;6.33;;;16.70;99.90;;;;;;5014457;28;20237;-82
2021/07/25 07:15:12;;;;;;;13.77;7.00;;;16.80;99.90;;;;;;5003862;28;20219;-83
2021/07/25 07:17:39;;;;;;;10.77;6.87;;;;;;;;;;5003081;28;20190;-83
2021/07/25 07:20:06;;;;;;;11.93;6.60;;;16.70;99.90;;;;;;5003142;28;20180;-84
2021/07/25 07:22:33;;;;;;;11.43;5.80;;;;;;;;;;5003741;28;20263;-83
2021/07/25 07:24:59;;;;;;;7.10;5.57;;;;;;;;;;5001937;28;20720;-83
2021/07/25 07:27:25;;;;;;;7.53;5.77;;;;;;;;;;5001991;28;20234;-83
2021/07/25 07:29:52;;;;;;;9.70;6.20;;;17.00;99.90;;;;;;5000107;28;20215;-82
2021/07/25 07:32:18;;;;;;;8.70;5.97;;;;;;;;;;4999420;28;20203;-82
2021/07/25 07:34:44;;;;;;;10.63;7.97;;;;;;;;;;4999718;28;20206;-82
2021/07/25 07:37:10;;;;;;;8.63;6.83;;;;;;;;;;5002320;28;20235;-82
2021/07/25 07:39:36;;;;;;;6.77;5.77;;;17.60;99.90;;;;;;5002911;28;20222;-82
2021/07/25 07:42:04;;;;;;;7.23;5.17;;;17.70;99.90;;;;;;5004018;28;20183;-82
2021/07/25 07:44:30;;;;;;;8.23;5.33;;;;;;;;;;4997927;28;20230;-82
2021/07/25 07:46:56;;;;;;;6.83;5.43;;;;;;;;;;5000263;28;20518;-82
2021/07/25 07:49:22;;;;;;;7.23;5.00;;;;;;;;;;4998110;28;20570;-82
2021/07/25 07:51:48;;;;;;;5.83;4.67;;;;;;;;;;5000434;28;20347;-82
2021/07/25 07:54:14;;;;;;;6.97;4.93;;;;;;;;;;4998266;28;20199;-82
2021/07/25 07:56:40;;;;;;;6.43;4.87;;;;;;;;;;5000144;28;20263;-81
2021/07/25 07:59:06;;;;;;;8.10;4.90;;;18.00;99.90;;;;;;5000912;28;20184;-82
2021/07/25 08:01:32;;;;;;;4.87;4.00;;;;;;;;;;5000733;28;20246;-82
2021/07/25 08:03:58;;;;;;;6.43;4.07;;;;;;;;;;5002776;28;20694;-82
2021/07/25 08:06:24;;;;;;;6.53;4.40;;;;;;;;;;5001483;28;20185;-82
2021/07/25 08:08:49;;;;;;;7.00;4.23;;;18.10;99.90;;;;;;5000420;28;20219;-81
2021/07/25 08:11:15;;;;;;;7.37;4.30;;;;;;;;;;5000400;28;20184;-82
2021/07/25 08:13:45;;;;;;;7.80;4.13;;;;;;;;;;5003726;28;20665;-81
2021/07/25 08:16:11;;;;;;;12.10;3.87;;;18.40;99.90;;;;;;5001406;28;20275;-82
2021/07/25 08:18:37;;;;;;;8.07;4.00;;;;;;;;;;5001989;28;20192;-82
2021/07/25 08:21:04;;;;;;;4.17;3.50;;;18.30;99.90;;;;;;5002556;28;20272;-81
2021/07/25 08:23:29;;;;;;;5.13;3.67;;;18.40;99.90;;;;;;5002079;28;20204;-81
2021/07/25 08:25:55;;;;;;;4.00;3.23;;;18.40;99.90;;;;;;5001334;28;20180;-81
2021/07/25 08:28:21;;;;;;;6.80;3.80;;;18.50;99.90;;;;;;5001052;28;20180;-81
2021/07/25 08:30:46;;;;;;;5.53;4.03;;;18.60;99.90;;;;;;5000830;28;20571;-82
2021/07/25 08:33:12;;;;;;;5.80;3.97;;;18.80;99.90;;;;;;5001503;28;20179;-82
2021/07/25 08:35:38;;;;;;;5.57;3.77;;;18.80;99.90;;;;;;4999652;28;20212;-82
2021/07/25 08:38:04;;;;;;;5.60;2.93;;;18.90;99.90;;;;;;4997606;28;20182;-81
2021/07/25 08:40:31;;;;;;;4.47;3.37;;;19.20;99.90;;;;;;4998205;28;20207;-82
2021/07/25 08:43:04;;;;;;;3.03;2.73;;;19.50;99.90;;;;;;5001991;28;20187;-82
2021/07/25 08:45:33;;;;;;;3.13;2.20;;;19.70;99.90;;;;;;5009470;28;20204;-82
2021/07/25 08:48:19;;;;;;;2.83;2.00;;;19.90;99.90;;;;;;5011153;28;20263;-82
2021/07/25 08:50:57;;;;;;;3.43;1.97;;;20.10;99.90;;;;;;5008832;28;20207;-82
2021/07/25 08:53:26;;;;;;;3.30;2.10;;;20.20;99.90;;;;;;5000259;28;20263;-82
2021/07/25 08:55:53;;;;;;;2.50;1.97;;;20.40;99.90;;;;;;5001532;28;20189;-82
2021/07/25 08:58:22;;;;;;;2.40;1.57;;;20.50;99.90;;;;;;5000618;28;20206;-82
2021/07/25 09:00:52;;;;;;;2.20;1.97;;;20.60;99.90;;;;;;5002484;28;20191;-82
2021/07/25 09:03:19;;;;;;;2.77;1.57;;;20.70;99.90;;;;;;5001114;28;20204;-82
2021/07/25 09:05:46;;;;;;;3.13;1.73;;;20.70;99.90;;;;;;5004681;28;20207;-82
2021/07/25 09:08:12;;;;;;;2.10;1.90;;;20.80;99.90;;;;;;5002970;28;20184;-83
2021/07/25 09:10:38;;;;;;;2.77;1.80;;;20.80;99.90;;;;;;5004074;28;20210;-82
2021/07/25 09:13:03;;;;;;;1.97;1.80;;;20.80;99.90;;;;;;5004611;28;20229;-82
2021/07/25 09:15:31;;;;;;;2.17;1.93;;;20.80;99.90;;;;;;5009847;28;20181;-82
2021/07/25 09:17:59;;;;;;;2.63;2.10;;;20.80;99.90;;;;;;5010648;28;20186;-82
2021/07/25 09:20:28;;;;;;;2.57;2.00;;;20.80;99.90;;;;;;5005833;28;20186;-82
2021/07/25 09:22:57;;;;;;;2.30;1.83;;;20.80;99.90;;;;;;5005190;28;20174;-83
2021/07/25 09:25:29;;;;;;;2.97;2.10;;;20.90;99.90;;;;;;5005791;28;20180;-82
2021/07/25 09:27:57;;;;;;;3.03;1.93;;;21.10;99.90;;;;;;5003551;28;20213;-82
2021/07/25 09:30:25;;;;;;;4.03;1.80;;;21.20;99.90;;;;;;5002785;28;20203;-82
2021/07/25 09:32:52;;;;;;;2.77;1.80;;;21.30;99.90;;;;;;5003304;28;20171;-82
2021/07/25 09:35:27;;;;;;;2.17;1.83;;;21.40;99.90;;;;;;5003169;28;20267;-82
2021/07/25 09:37:54;;;;;;;2.67;2.10;;;21.40;99.90;;;;;;5004223;28;20190;-82
2021/07/25 09:40:28;;;;;;;2.73;1.97;;;21.40;99.90;;;;;;5002905;28;20268;-82
2021/07/25 09:43:15;;;;;;;2.83;1.83;;;21.40;99.90;;;;;;5004052;28;20180;-82
2021/07/25 09:45:50;;;;;;;4.70;1.93;;;21.20;99.90;;;;;;5002958;28;20199;-83
2021/07/25 09:48:20;;;;;;;2.80;2.50;;;21.10;99.90;;;;;;5005987;28;20541;-82
2021/07/25 09:50:47;;;;;;;3.33;2.03;;;21.00;99.90;;;;;;5003329;28;20290;-82
2021/07/25 09:53:15;;;;;;;4.67;2.00;;;20.90;99.90;;;;;;5004059;28;20178;-82
2021/07/25 09:55:41;;;;;;;2.53;2.33;;;20.90;99.90;;;;;;5004023;28;20183;-83
2021/07/25 09:58:07;;;;;;;2.47;2.27;;;20.90;99.90;;;;;;5002848;28;20175;-83
2021/07/25 10:00:46;;;;;;;4.00;2.30;;;21.00;99.90;;;;;;5002548;28;20184;-82
2021/07/25 10:03:17;;;;;;;2.93;2.40;;;21.10;99.90;;;;;;5001985;28;20197;-82
2021/07/25 10:05:47;;;;;;;3.97;2.37;;;21.20;99.90;;;;;;5002603;28;20206;-82
2021/07/25 10:08:16;;;;;;;4.30;2.80;;;21.20;99.90;;;;;;5001927;28;20199;-82
2021/07/25 10:10:45;;;;;;;4.27;3.37;;;21.20;99.90;;;;;;5001820;28;20214;-83
2021/07/25 10:13:16;;;;;;;5.33;3.70;;;21.20;99.90;;;;;;4999341;28;20652;-83
2021/07/25 10:15:56;;;;;;;5.97;2.77;;;21.20;99.90;;;;;;4999682;28;20176;-82
2021/07/25 10:18:23;;;;;;;2.97;2.60;;;21.20;99.90;;;;;;5001773;28;20186;-82
2021/07/25 10:20:59;;;;;;;3.07;2.80;;;21.30;99.90;;;;;;5002038;28;20242;-82
2021/07/25 10:23:47;;;;;;;2.93;2.73;;;21.30;99.90;;;;;;5002082;28;20206;-82
2021/07/25 10:26:13;;;;;;;4.23;3.13;;;21.30;99.90;;;;;;5002691;28;20184;-82
2021/07/25 10:28:41;;;;;;;4.43;2.93;;;21.40;99.90;;;;;;5000698;28;20211;-82
2021/07/25 10:31:08;;;;;;;5.40;2.80;;;21.50;99.90;;;;;;4999432;28;20172;-83
2021/07/25 10:33:38;;;;;;;4.93;3.53;;;21.50;99.90;;;;;;4998222;28;20200;-81
2021/07/25 10:36:04;;;;;;;3.60;2.60;;;21.50;99.90;;;;;;5001034;28;20187;-82
2021/07/25 10:38:30;;;;;;;3.17;2.87;;;21.40;99.90;;;;;;5008200;28;20176;-82
2021/07/25 10:40:57;;;;;;;5.47;3.20;;;21.50;99.90;;;;;;5004338;28;20255;-82
2021/07/25 10:43:25;;;;;;;3.10;2.80;;;21.40;99.90;;;;;;5003790;28;20206;-82
2021/07/25 10:46:14;;;;;;;5.73;3.53;;;21.40;99.90;;;;;;5003370;28;20241;-82
2021/07/25 10:49:19;;;;;;;4.07;3.23;;;21.50;99.90;;;;;;5013881;28;20206;-82
2021/07/25 10:52:02;;;;;;;5.53;3.07;;;21.50;99.90;;;;;;5006569;28;20214;-82
2021/07/25 10:54:29;;;;;;;3.53;3.00;;;21.70;99.90;;;;;;5005634;28;20700;-82
2021/07/25 10:57:02;;;;;;;5.90;3.17;;;21.90;99.90;;;;;;5005911;28;20180;-82
2021/07/25 10:59:40;;;;;;;3.67;2.80;;;22.20;99.90;;;;;;5004560;28;20206;-82
2021/07/25 11:02:08;;;;;;;4.23;2.90;;;22.50;99.90;;;;;;5007047;28;20238;-82
2021/07/25 11:04:53;;;;;;;3.80;3.07;;;22.70;99.90;;;;;;5005459;28;20302;-83
2021/07/25 11:07:27;;;;;;;4.43;3.30;;;22.80;99.90;;;;;;5007366;28;20242;-81
2021/07/25 11:09:55;;;;;;;3.50;3.10;;;22.80;99.90;;;;;;5002266;28;20298;-81
2021/07/25 11:12:21;;;;;;;4.20;2.80;;;22.60;99.90;;;;;;5001515;28;20180;-81
2021/07/25 11:14:58;;;;;;;4.30;3.10;;;22.50;99.90;;;;;;5002697;28;20228;-81
2021/07/25 11:17:45;;;;;;;3.80;3.03;;;22.40;99.90;;;;;;5001339;28;20214;-81
2021/07/25 11:20:33;;;;;;;4.90;3.60;;;22.30;99.90;;;;;;5002186;28;20184;-81
2021/07/25 11:22:59;;;;;;;4.83;2.90;;;22.10;99.90;;;;;;5003812;28;20243;-82
2021/07/25 11:25:30;;;;;;;5.97;3.53;;;22.00;99.90;;;;;;5003059;28;20238;-81
2021/07/25 11:27:56;;;;;;;6.07;3.73;;;21.80;99.90;;;;;;5001245;28;20184;-82
2021/07/25 11:30:49;;;;;;;4.07;3.50;;;21.70;99.90;;;;;;5002894;28;20213;-82
2021/07/25 11:33:40;;;;;;;5.87;3.63;;;21.70;99.90;;;;;;4999753;28;20203;-80
2021/07/25 11:36:14;;;;;;;4.00;3.37;;;21.70;99.90;;;;;;5001255;28;20178;-81
2021/07/25 11:38:41;;;;;;;4.93;3.80;;;21.70;99.90;;;;;;4999996;28;20202;-81
2021/07/25 11:41:09;;;;;;;3.73;3.10;;;21.80;99.90;;;;;;5001155;28;20183;-81
2021/07/25 11:43:53;;;;;;;6.10;3.60;;;21.80;99.90;;;;;;5000463;28;20290;-80
2021/07/25 11:46:45;;;;;;;4.23;3.67;;;21.80;99.90;;;;;;5000036;28;20175;-80
2021/07/25 11:49:13;;;;;;;4.90;3.60;;;21.90;99.90;;;;;;5001306;28;20599;-79
2021/07/25 11:51:42;;;;;;;4.03;3.63;;;22.00;99.90;;;;;;5001026;28;20183;-81
2021/07/25 11:54:09;;;;;;;10.67;7.03;;;22.00;99.90;;;;;;5004000;28;20203;-81
2021/07/25 11:56:35;;;;;;;6.73;5.10;;;22.10;99.90;;;;;;5002517;28;20176;-80
2021/07/25 11:59:05;;;;;;;6.47;4.27;;;22.20;99.90;;;;;;5003508;28;20556;-82
2021/07/25 12:01:32;;;;;;;11.23;6.70;;;22.20;99.90;;;;;;5001859;28;20247;-81
2021/07/25 12:03:58;;;;;;;13.40;4.77;;;22.20;99.90;;;;;;5004707;28;20196;-82
2021/07/25 12:06:24;;;;;;;8.17;4.00;;;22.30;99.90;;;;;;5001933;28;20210;-81
2021/07/25 12:09:02;;;;;;;14.37;6.73;;;22.30;99.90;;;;;;5003136;28;20258;-81
2021/07/25 12:11:27;;;;;;;8.80;7.60;;;22.30;99.90;;;;;;5001659;28;20171;-82
2021/07/25 12:13:53;;;;;;;7.87;5.97;;;22.40;99.90;;;;;;5002508;28;20196;-81
2021/07/25 12:16:19;;;;;;;6.10;5.00;;;22.50;99.90;;;;;;5002369;28;20180;-81
2021/07/25 12:18:46;;;;;;;7.13;4.90;;;22.40;99.90;;;;;;5003879;28;20178;-81
2021/07/25 12:21:32;;;;;;;28.80;17.17;;;22.50;99.90;;;;;;5001987;28;20180;-81
2021/07/25 12:24:01;;;;;;;14.27;9.23;;;22.50;99.90;;;;;;5002881;28;20199;-81
2021/07/25 12:26:42;;;;;;;9.63;6.47;;;22.50;99.90;;;;;;5002123;28;20176;-81
2021/07/25 12:29:41;;;;;;;11.33;8.40;;;22.60;99.90;;;;;;4999004;28;20188;-80
2021/07/25 12:32:27;;;;;;;10.30;6.43;;;22.70;99.90;;;;;;5004836;28;20608;-81
2021/07/25 12:35:12;;;;;;;6.23;5.53;;;23.00;99.90;;;;;;5002083;28;20223;-80
2021/07/25 12:37:45;;;;;;;12.80;8.60;;;23.50;99.90;;;;;;5000931;28;20167;-80
2021/07/25 12:40:12;;;;;;;4.63;3.50;;;24.10;99.90;;;;;;5005555;28;20186;-82
2021/07/25 12:43:01;;;;;;;6.13;3.40;;;24.40;99.90;;;;;;5007092;28;20180;-82
2021/07/25 12:45:38;;;;;;;4.47;3.03;;;24.40;99.90;;;;;;5007081;28;20203;-82
2021/07/25 12:48:26;;;;;;;3.47;2.87;;;24.00;99.90;;;;;;5007962;28;20179;-81
2021/07/25 12:51:09;;;;;;;3.43;3.13;;;23.60;99.90;;;;;;5004140;28;20274;-81
2021/07/25 12:54:00;;;;;;;5.37;3.00;;;23.30;99.90;;;;;;5005074;28;20286;-82
2021/07/25 12:56:30;;;;;;;5.83;3.70;;;23.20;99.90;;;;;;5004044;28;20165;-81
2021/07/25 12:59:02;;;;;;;5.10;3.50;;;23.00;99.90;;;;;;5006292;28;20263;-82
2021/07/25 13:04:05;;;;;;;4.97;3.27;;;22.60;99.90;;;;;;5004320;28;20206;-80
2021/07/25 13:06:38;;;;;;;3.40;3.10;;;22.60;99.90;;;;;;5005377;28;20574;-81
2021/07/25 13:09:18;;;;;;;4.50;3.83;;;22.60;99.90;;;;;;5004518;28;20278;-82
2021/07/25 13:11:47;;;;;;;4.43;3.63;;;22.70;99.90;;;;;;5006341;28;20168;-81